Main page
METAR-TAF:

METAR-TAF

Airports :

Ilorin, Nigeria

Ilorin International Airport

latitude: 08-29N, longitude: 004-35E, elevation: 308 m

METAR: missing

Time: 08:54 (07:54 UTC)

Forecast

The report was made 4 hours and 14 minutes ago, at 03:40 UTC
Forecast valid from 26 at 06 UTC to 27 at 12 UTC
Wind 5 kt from the South
Visibility 10 km or more
no clouds below 1500 m and no cumulonimbus
Becoming
from 26 at 08 UTC to 26 at 10 UTC
Wind 10 kt from the West/Southwest
Broken clouds at a height of 1100 ft
Temporary
from 26 at 14 UTC to 26 at 20 UTC
Scattered clouds at a height of 1300 ft
Few clouds at a height of 2000 ft, Cumulonimbus.
thunderstorm
Becoming
from 26 at 20 UTC to 26 at 22 UTC
Wind 5 kt from the South/Southeast
Visibility 10 km or more
no clouds below 1500 m and no cumulonimbus

TAF: DNIL 260340Z 2606/2712 18005KT CAVOK BECMG 2608/2610 25010KT BKN011 TEMPO 2614/2620 TS SCT013 FEW020CB BECMG 2620/2622 15005KT CAVOK

Weather observations and forecasts of more than 4000 airports (METAR and TAF reports).

The available stations are represented by yellow and red dots on the map.

Hover mouse over dot to see the name of the station.

Then click to see weather observations and forecasts.

To change the map : click on the green buttons with a black cross to zoom in, on the green button with a dash to zoom out, or on the green arrows for adjacent maps.


METAR-TAF: